sensor_id;sensor_type;location;lat;lon;timestamp;P1;durP1;ratioP1;P2;durP2;ratioP2
29200;SDS011;16244;51.956;12.980;2024-02-14T00:02:08;4.50;;;2.40;;
29200;SDS011;16244;51.956;12.980;2024-02-14T00:04:36;3.40;;;3.20;;
29200;SDS011;16244;51.956;12.980;2024-02-14T00:07:04;2.23;;;2.13;;
29200;SDS011;16244;51.956;12.980;2024-02-14T00:09:32;2.30;;;2.20;;
29200;SDS011;16244;51.956;12.980;2024-02-14T00:12:00;3.67;;;2.87;;
29200;SDS011;16244;51.956;12.980;2024-02-14T00:14:28;3.57;;;2.90;;
29200;SDS011;16244;51.956;12.980;2024-02-14T00:16:55;5.43;;;3.17;;
29200;SDS011;16244;51.956;12.980;2024-02-14T00:19:25;2.27;;;2.17;;
29200;SDS011;16244;51.956;12.980;2024-02-14T00:21:52;3.47;;;2.93;;
29200;SDS011;16244;51.956;12.980;2024-02-14T00:24:20;4.93;;;2.67;;
29200;SDS011;16244;51.956;12.980;2024-02-14T00:26:48;2.97;;;1.90;;
29200;SDS011;16244;51.956;12.980;2024-02-14T00:29:17;5.60;;;2.30;;
29200;SDS011;16244;51.956;12.980;2024-02-14T00:31:44;3.13;;;2.83;;
29200;SDS011;16244;51.956;12.980;2024-02-14T00:34:12;1.57;;;1.57;;
29200;SDS011;16244;51.956;12.980;2024-02-14T00:36:39;3.17;;;2.73;;
29200;SDS011;16244;51.956;12.980;2024-02-14T00:39:07;2.77;;;2.73;;
29200;SDS011;16244;51.956;12.980;2024-02-14T00:41:35;2.67;;;2.57;;
29200;SDS011;16244;51.956;12.980;2024-02-14T00:44:03;2.93;;;2.57;;
29200;SDS011;16244;51.956;12.980;2024-02-14T00:46:32;2.17;;;2.17;;
29200;SDS011;16244;51.956;12.980;2024-02-14T00:48:59;9.13;;;2.80;;
29200;SDS011;16244;51.956;12.980;2024-02-14T00:51:26;2.73;;;2.33;;
29200;SDS011;16244;51.956;12.980;2024-02-14T00:53:55;2.70;;;2.60;;
29200;SDS011;16244;51.956;12.980;2024-02-14T00:56:23;3.13;;;2.77;;
29200;SDS011;16244;51.956;12.980;2024-02-14T00:58:50;2.90;;;2.80;;
29200;SDS011;16244;51.956;12.980;2024-02-14T01:01:18;6.33;;;2.60;;
29200;SDS011;16244;51.956;12.980;2024-02-14T01:03:46;5.43;;;2.73;;
29200;SDS011;16244;51.956;12.980;2024-02-14T01:06:14;2.67;;;2.47;;
29200;SDS011;16244;51.956;12.980;2024-02-14T01:08:42;1.80;;;1.80;;
29200;SDS011;16244;51.956;12.980;2024-02-14T01:11:09;2.17;;;2.17;;
29200;SDS011;16244;51.956;12.980;2024-02-14T01:13:37;2.43;;;2.30;;
29200;SDS011;16244;51.956;12.980;2024-02-14T01:16:05;2.83;;;2.20;;
29200;SDS011;16244;51.956;12.980;2024-02-14T01:18:33;2.03;;;1.93;;
29200;SDS011;16244;51.956;12.980;2024-02-14T01:21:03;3.03;;;2.90;;
29200;SDS011;16244;51.956;12.980;2024-02-14T01:23:31;1.83;;;1.83;;
29200;SDS011;16244;51.956;12.980;2024-02-14T01:26:04;2.07;;;2.03;;
29200;SDS011;16244;51.956;12.980;2024-02-14T01:28:31;2.30;;;2.20;;
29200;SDS011;16244;51.956;12.980;2024-02-14T01:30:59;2.33;;;2.23;;
29200;SDS011;16244;51.956;12.980;2024-02-14T01:33:26;2.50;;;2.20;;
29200;SDS011;16244;51.956;12.980;2024-02-14T01:35:54;2.10;;;2.00;;
29200;SDS011;16244;51.956;12.980;2024-02-14T01:38:24;2.60;;;2.60;;
29200;SDS011;16244;51.956;12.980;2024-02-14T01:40:52;2.20;;;2.20;;
29200;SDS011;16244;51.956;12.980;2024-02-14T01:43:19;2.77;;;2.50;;
29200;SDS011;16244;51.956;12.980;2024-02-14T01:45:47;2.60;;;2.47;;
29200;SDS011;16244;51.956;12.980;2024-02-14T01:48:14;3.63;;;3.10;;
29200;SDS011;16244;51.956;12.980;2024-02-14T01:50:44;2.37;;;2.37;;
29200;SDS011;16244;51.956;12.980;2024-02-14T01:53:11;2.40;;;2.40;;
29200;SDS011;16244;51.956;12.980;2024-02-14T01:55:41;1.53;;;1.53;;
29200;SDS011;16244;51.956;12.980;2024-02-14T01:58:08;2.93;;;2.77;;
29200;SDS011;16244;51.956;12.980;2024-02-14T02:00:36;6.07;;;3.27;;
29200;SDS011;16244;51.956;12.980;2024-02-14T02:03:04;3.07;;;2.83;;
29200;SDS011;16244;51.956;12.980;2024-02-14T02:05:32;2.10;;;2.00;;
29200;SDS011;16244;51.956;12.980;2024-02-14T02:07:59;3.20;;;3.10;;
29200;SDS011;16244;51.956;12.980;2024-02-14T02:10:27;2.00;;;2.00;;
29200;SDS011;16244;51.956;12.980;2024-02-14T02:12:59;2.70;;;2.60;;
29200;SDS011;16244;51.956;12.980;2024-02-14T02:15:26;2.10;;;2.00;;
29200;SDS011;16244;51.956;12.980;2024-02-14T02:17:55;5.03;;;2.83;;
29200;SDS011;16244;51.956;12.980;2024-02-14T02:20:23;2.73;;;2.53;;
29200;SDS011;16244;51.956;12.980;2024-02-14T02:22:51;2.47;;;2.37;;
29200;SDS011;16244;51.956;12.980;2024-02-14T02:25:19;2.20;;;2.10;;
29200;SDS011;16244;51.956;12.980;2024-02-14T02:27:50;2.60;;;2.50;;
29200;SDS011;16244;51.956;12.980;2024-02-14T02:30:18;3.13;;;2.93;;
29200;SDS011;16244;51.956;12.980;2024-02-14T02:32:45;2.10;;;2.10;;
29200;SDS011;16244;51.956;12.980;2024-02-14T02:35:12;2.30;;;2.30;;
29200;SDS011;16244;51.956;12.980;2024-02-14T02:37:40;2.40;;;2.40;;
29200;SDS011;16244;51.956;12.980;2024-02-14T02:40:10;3.60;;;3.30;;
29200;SDS011;16244;51.956;12.980;2024-02-14T02:42:39;2.53;;;2.53;;
29200;SDS011;16244;51.956;12.980;2024-02-14T02:45:06;2.73;;;2.63;;
29200;SDS011;16244;51.956;12.980;2024-02-14T02:47:35;3.07;;;2.80;;
29200;SDS011;16244;51.956;12.980;2024-02-14T02:50:02;2.77;;;2.57;;
29200;SDS011;16244;51.956;12.980;2024-02-14T02:52:31;2.50;;;2.40;;
29200;SDS011;16244;51.956;12.980;2024-02-14T02:54:59;5.40;;;2.33;;
29200;SDS011;16244;51.956;12.980;2024-02-14T02:57:28;2.80;;;2.70;;
29200;SDS011;16244;51.956;12.980;2024-02-14T02:59:57;2.37;;;2.37;;
29200;SDS011;16244;51.956;12.980;2024-02-14T03:02:26;2.53;;;2.50;;
29200;SDS011;16244;51.956;12.980;2024-02-14T03:04:53;3.00;;;2.90;;
29200;SDS011;16244;51.956;12.980;2024-02-14T03:07:21;3.10;;;2.90;;
29200;SDS011;16244;51.956;12.980;2024-02-14T03:09:49;2.13;;;2.00;;
29200;SDS011;16244;51.956;12.980;2024-02-14T03:12:17;6.13;;;3.10;;
29200;SDS011;16244;51.956;12.980;2024-02-14T03:14:46;2.50;;;2.40;;
29200;SDS011;16244;51.956;12.980;2024-02-14T03:17:13;2.00;;;1.90;;
29200;SDS011;16244;51.956;12.980;2024-02-14T03:19:40;2.60;;;2.50;;
29200;SDS011;16244;51.956;12.980;2024-02-14T03:22:08;1.90;;;1.90;;
29200;SDS011;16244;51.956;12.980;2024-02-14T03:24:37;3.00;;;2.90;;
29200;SDS011;16244;51.956;12.980;2024-02-14T03:27:04;2.30;;;2.20;;
29200;SDS011;16244;51.956;12.980;2024-02-14T03:29:32;2.60;;;2.40;;
29200;SDS011;16244;51.956;12.980;2024-02-14T03:32:02;4.30;;;2.57;;
29200;SDS011;16244;51.956;12.980;2024-02-14T03:34:30;3.30;;;3.10;;
29200;SDS011;16244;51.956;12.980;2024-02-14T03:36:59;2.83;;;2.73;;
29200;SDS011;16244;51.956;12.980;2024-02-14T03:39:28;2.00;;;2.00;;
29200;SDS011;16244;51.956;12.980;2024-02-14T03:41:56;2.47;;;2.37;;
29200;SDS011;16244;51.956;12.980;2024-02-14T03:44:26;3.33;;;3.07;;
29200;SDS011;16244;51.956;12.980;2024-02-14T03:46:54;3.23;;;2.93;;
29200;SDS011;16244;51.956;12.980;2024-02-14T03:49:22;2.33;;;2.23;;
29200;SDS011;16244;51.956;12.980;2024-02-14T03:51:51;3.17;;;2.97;;
29200;SDS011;16244;51.956;12.980;2024-02-14T03:54:20;2.57;;;2.47;;
29200;SDS011;16244;51.956;12.980;2024-02-14T03:56:49;7.43;;;3.23;;
29200;SDS011;16244;51.956;12.980;2024-02-14T03:59:17;4.20;;;2.90;;
29200;SDS011;16244;51.956;12.980;2024-02-14T04:01:50;3.33;;;3.17;;
29200;SDS011;16244;51.956;12.980;2024-02-14T04:04:19;2.60;;;2.50;;
29200;SDS011;16244;51.956;12.980;2024-02-14T04:06:48;2.30;;;2.10;;
29200;SDS011;16244;51.956;12.980;2024-02-14T04:09:15;2.87;;;2.77;;
29200;SDS011;16244;51.956;12.980;2024-02-14T04:11:43;2.57;;;2.47;;
29200;SDS011;16244;51.956;12.980;2024-02-14T04:14:10;2.27;;;2.17;;
29200;SDS011;16244;51.956;12.980;2024-02-14T04:16:38;2.83;;;2.73;;
29200;SDS011;16244;51.956;12.980;2024-02-14T04:19:06;4.30;;;2.40;;
29200;SDS011;16244;51.956;12.980;2024-02-14T04:21:34;2.40;;;2.20;;
29200;SDS011;16244;51.956;12.980;2024-02-14T04:24:03;2.27;;;2.20;;
29200;SDS011;16244;51.956;12.980;2024-02-14T04:26:34;2.00;;;1.90;;
29200;SDS011;16244;51.956;12.980;2024-02-14T04:29:01;3.90;;;2.27;;
29200;SDS011;16244;51.956;12.980;2024-02-14T04:31:29;2.43;;;2.43;;
29200;SDS011;16244;51.956;12.980;2024-02-14T04:33:57;2.57;;;2.47;;
29200;SDS011;16244;51.956;12.980;2024-02-14T04:36:24;2.30;;;2.30;;
29200;SDS011;16244;51.956;12.980;2024-02-14T04:38:52;3.00;;;2.57;;
29200;SDS011;16244;51.956;12.980;2024-02-14T04:41:22;3.07;;;2.93;;
29200;SDS011;16244;51.956;12.980;2024-02-14T04:43:50;3.30;;;3.10;;
29200;SDS011;16244;51.956;12.980;2024-02-14T04:46:17;5.50;;;2.47;;
29200;SDS011;16244;51.956;12.980;2024-02-14T04:48:45;2.30;;;2.20;;
29200;SDS011;16244;51.956;12.980;2024-02-14T04:51:12;2.60;;;2.40;;
29200;SDS011;16244;51.956;12.980;2024-02-14T04:53:40;2.90;;;2.70;;
29200;SDS011;16244;51.956;12.980;2024-02-14T04:56:07;2.37;;;2.27;;
29200;SDS011;16244;51.956;12.980;2024-02-14T04:58:36;4.20;;;2.63;;
29200;SDS011;16244;51.956;12.980;2024-02-14T05:01:03;2.87;;;2.77;;
29200;SDS011;16244;51.956;12.980;2024-02-14T05:03:33;2.83;;;2.73;;
29200;SDS011;16244;51.956;12.980;2024-02-14T05:06:00;2.70;;;2.50;;
29200;SDS011;16244;51.956;12.980;2024-02-14T05:08:28;3.27;;;3.03;;
29200;SDS011;16244;51.956;12.980;2024-02-14T05:10:56;2.57;;;2.37;;
29200;SDS011;16244;51.956;12.980;2024-02-14T05:13:23;7.30;;;2.70;;
29200;SDS011;16244;51.956;12.980;2024-02-14T05:15:52;3.10;;;2.80;;
29200;SDS011;16244;51.956;12.980;2024-02-14T05:18:19;3.33;;;3.23;;
29200;SDS011;16244;51.956;12.980;2024-02-14T05:20:47;2.70;;;2.57;;
29200;SDS011;16244;51.956;12.980;2024-02-14T05:23:15;3.10;;;2.53;;
29200;SDS011;16244;51.956;12.980;2024-02-14T05:25:43;3.17;;;2.70;;
29200;SDS011;16244;51.956;12.980;2024-02-14T05:28:11;6.60;;;2.70;;
29200;SDS011;16244;51.956;12.980;2024-02-14T05:30:39;2.83;;;2.50;;
29200;SDS011;16244;51.956;12.980;2024-02-14T05:33:08;4.13;;;2.20;;
29200;SDS011;16244;51.956;12.980;2024-02-14T05:35:36;2.53;;;2.33;;
29200;SDS011;16244;51.956;12.980;2024-02-14T05:38:05;2.70;;;2.53;;
29200;SDS011;16244;51.956;12.980;2024-02-14T05:40:33;2.40;;;2.30;;
29200;SDS011;16244;51.956;12.980;2024-02-14T05:43:04;2.37;;;2.27;;
29200;SDS011;16244;51.956;12.980;2024-02-14T05:45:33;1.77;;;1.77;;
29200;SDS011;16244;51.956;12.980;2024-02-14T05:48:00;2.80;;;2.70;;
29200;SDS011;16244;51.956;12.980;2024-02-14T05:50:30;1.60;;;1.60;;
29200;SDS011;16244;51.956;12.980;2024-02-14T05:52:58;5.83;;;2.10;;
29200;SDS011;16244;51.956;12.980;2024-02-14T05:55:26;2.13;;;2.03;;
29200;SDS011;16244;51.956;12.980;2024-02-14T05:57:53;2.20;;;2.10;;
29200;SDS011;16244;51.956;12.980;2024-02-14T06:00:21;2.43;;;1.70;;
29200;SDS011;16244;51.956;12.980;2024-02-14T06:02:48;1.60;;;1.50;;
29200;SDS011;16244;51.956;12.980;2024-02-14T06:05:16;1.67;;;1.67;;
29200;SDS011;16244;51.956;12.980;2024-02-14T06:07:45;3.13;;;2.20;;
29200;SDS011;16244;51.956;12.980;2024-02-14T06:10:12;1.90;;;1.80;;
29200;SDS011;16244;51.956;12.980;2024-02-14T06:12:40;2.00;;;1.90;;
29200;SDS011;16244;51.956;12.980;2024-02-14T06:15:09;1.70;;;1.70;;
29200;SDS011;16244;51.956;12.980;2024-02-14T06:17:38;1.70;;;1.70;;
29200;SDS011;16244;51.956;12.980;2024-02-14T06:20:06;1.50;;;1.50;;
29200;SDS011;16244;51.956;12.980;2024-02-14T06:22:34;5.63;;;1.60;;
29200;SDS011;16244;51.956;12.980;2024-02-14T06:25:04;2.40;;;1.60;;
29200;SDS011;16244;51.956;12.980;2024-02-14T06:27:34;1.40;;;1.40;;
29200;SDS011;16244;51.956;12.980;2024-02-14T06:30:02;1.80;;;1.70;;
29200;SDS011;16244;51.956;12.980;2024-02-14T06:32:32;1.63;;;1.63;;
29200;SDS011;16244;51.956;12.980;2024-02-14T06:35:00;1.30;;;1.30;;
29200;SDS011;16244;51.956;12.980;2024-02-14T06:37:30;1.63;;;1.27;;
29200;SDS011;16244;51.956;12.980;2024-02-14T06:39:58;1.70;;;1.43;;
29200;SDS011;16244;51.956;12.980;2024-02-14T06:42:26;1.30;;;1.30;;
29200;SDS011;16244;51.956;12.980;2024-02-14T06:44:54;2.13;;;1.47;;
29200;SDS011;16244;51.956;12.980;2024-02-14T06:47:21;1.43;;;1.43;;
29200;SDS011;16244;51.956;12.980;2024-02-14T06:49:49;3.17;;;1.40;;
29200;SDS011;16244;51.956;12.980;2024-02-14T06:52:16;1.80;;;1.20;;
29200;SDS011;16244;51.956;12.980;2024-02-14T06:54:43;1.07;;;1.07;;
29200;SDS011;16244;51.956;12.980;2024-02-14T06:57:11;1.47;;;1.47;;
29200;SDS011;16244;51.956;12.980;2024-02-14T06:59:40;0.83;;;0.83;;
29200;SDS011;16244;51.956;12.980;2024-02-14T07:02:08;1.10;;;1.10;;
29200;SDS011;16244;51.956;12.980;2024-02-14T07:04:35;1.00;;;1.00;;
29200;SDS011;16244;51.956;12.980;2024-02-14T07:07:03;1.23;;;0.97;;
29200;SDS011;16244;51.956;12.980;2024-02-14T07:09:30;1.40;;;1.40;;
29200;SDS011;16244;51.956;12.980;2024-02-14T07:12:01;0.90;;;0.90;;
29200;SDS011;16244;51.956;12.980;2024-02-14T07:14:29;1.20;;;1.10;;
29200;SDS011;16244;51.956;12.980;2024-02-14T07:16:57;0.80;;;0.80;;
29200;SDS011;16244;51.956;12.980;2024-02-14T07:19:25;1.00;;;1.00;;
29200;SDS011;16244;51.956;12.980;2024-02-14T07:21:52;0.77;;;0.77;;
29200;SDS011;16244;51.956;12.980;2024-02-14T07:24:20;0.77;;;0.77;;
29200;SDS011;16244;51.956;12.980;2024-02-14T07:26:47;0.87;;;0.87;;
29200;SDS011;16244;51.956;12.980;2024-02-14T07:29:15;0.77;;;0.77;;
29200;SDS011;16244;51.956;12.980;2024-02-14T07:31:42;1.00;;;1.00;;
29200;SDS011;16244;51.956;12.980;2024-02-14T07:34:11;0.93;;;0.80;;
29200;SDS011;16244;51.956;12.980;2024-02-14T07:36:38;0.70;;;0.70;;
29200;SDS011;16244;51.956;12.980;2024-02-14T07:39:07;4.00;;;0.60;;
29200;SDS011;16244;51.956;12.980;2024-02-14T07:41:34;2.20;;;0.90;;
29200;SDS011;16244;51.956;12.980;2024-02-14T07:44:02;0.60;;;0.60;;
29200;SDS011;16244;51.956;12.980;2024-02-14T07:46:30;0.60;;;0.60;;
29200;SDS011;16244;51.956;12.980;2024-02-14T07:48:58;1.37;;;0.67;;
29200;SDS011;16244;51.956;12.980;2024-02-14T07:51:26;2.00;;;0.67;;
29200;SDS011;16244;51.956;12.980;2024-02-14T07:53:55;0.60;;;0.60;;
29200;SDS011;16244;51.956;12.980;2024-02-14T07:56:22;0.77;;;0.77;;
29200;SDS011;16244;51.956;12.980;2024-02-14T07:58:50;0.60;;;0.60;;
29200;SDS011;16244;51.956;12.980;2024-02-14T08:01:17;2.00;;;2.00;;
29200;SDS011;16244;51.956;12.980;2024-02-14T08:03:45;2.20;;;1.63;;
29200;SDS011;16244;51.956;12.980;2024-02-14T08:06:13;8.33;;;2.37;;
29200;SDS011;16244;51.956;12.980;2024-02-14T08:08:41;3.17;;;1.77;;
29200;SDS011;16244;51.956;12.980;2024-02-14T08:11:10;2.13;;;2.03;;
29200;SDS011;16244;51.956;12.980;2024-02-14T08:13:39;1.10;;;1.10;;
29200;SDS011;16244;51.956;12.980;2024-02-14T08:16:06;1.57;;;1.47;;
29200;SDS011;16244;51.956;12.980;2024-02-14T08:18:34;3.00;;;2.30;;
29200;SDS011;16244;51.956;12.980;2024-02-14T08:21:02;1.20;;;1.20;;
29200;SDS011;16244;51.956;12.980;2024-02-14T08:23:31;2.00;;;1.30;;
29200;SDS011;16244;51.956;12.980;2024-02-14T08:26:00;2.10;;;2.00;;
29200;SDS011;16244;51.956;12.980;2024-02-14T08:28:27;2.30;;;2.20;;
29200;SDS011;16244;51.956;12.980;2024-02-14T08:30:55;1.80;;;1.70;;
29200;SDS011;16244;51.956;12.980;2024-02-14T08:33:22;2.10;;;1.90;;
29200;SDS011;16244;51.956;12.980;2024-02-14T08:35:50;1.43;;;1.43;;
29200;SDS011;16244;51.956;12.980;2024-02-14T08:38:19;1.13;;;1.10;;
29200;SDS011;16244;51.956;12.980;2024-02-14T08:40:47;1.90;;;1.90;;
29200;SDS011;16244;51.956;12.980;2024-02-14T08:43:15;1.70;;;1.60;;
29200;SDS011;16244;51.956;12.980;2024-02-14T08:45:43;2.80;;;2.40;;
29200;SDS011;16244;51.956;12.980;2024-02-14T08:48:10;2.60;;;1.57;;
29200;SDS011;16244;51.956;12.980;2024-02-14T08:50:38;9.83;;;1.87;;
29200;SDS011;16244;51.956;12.980;2024-02-14T08:53:05;1.07;;;1.07;;
29200;SDS011;16244;51.956;12.980;2024-02-14T08:55:32;0.97;;;0.70;;
29200;SDS011;16244;51.956;12.980;2024-02-14T08:58:00;1.47;;;1.40;;
29200;SDS011;16244;51.956;12.980;2024-02-14T09:00:29;2.30;;;1.33;;
29200;SDS011;16244;51.956;12.980;2024-02-14T09:02:57;1.07;;;1.07;;
29200;SDS011;16244;51.956;12.980;2024-02-14T09:05:26;2.20;;;1.50;;
29200;SDS011;16244;51.956;12.980;2024-02-14T09:07:54;1.10;;;1.10;;
29200;SDS011;16244;51.956;12.980;2024-02-14T09:10:21;1.10;;;1.10;;
29200;SDS011;16244;51.956;12.980;2024-02-14T09:12:49;1.37;;;0.83;;
29200;SDS011;16244;51.956;12.980;2024-02-14T09:15:16;1.37;;;0.80;;
29200;SDS011;16244;51.956;12.980;2024-02-14T09:17:46;1.77;;;1.23;;
29200;SDS011;16244;51.956;12.980;2024-02-14T09:20:13;1.40;;;1.30;;
29200;SDS011;16244;51.956;12.980;2024-02-14T09:22:41;2.10;;;1.80;;
29200;SDS011;16244;51.956;12.980;2024-02-14T09:25:08;1.80;;;1.70;;
29200;SDS011;16244;51.956;12.980;2024-02-14T09:27:36;1.07;;;1.07;;
29200;SDS011;16244;51.956;12.980;2024-02-14T09:30:04;2.40;;;1.03;;
29200;SDS011;16244;51.956;12.980;2024-02-14T09:32:33;2.50;;;1.20;;
29200;SDS011;16244;51.956;12.980;2024-02-14T09:35:02;1.13;;;0.70;;
29200;SDS011;16244;51.956;12.980;2024-02-14T09:37:32;3.73;;;0.80;;
29200;SDS011;16244;51.956;12.980;2024-02-14T09:39:59;0.97;;;0.97;;
29200;SDS011;16244;51.956;12.980;2024-02-14T09:42:28;0.80;;;0.80;;
29200;SDS011;16244;51.956;12.980;2024-02-14T09:45:00;2.67;;;0.97;;
29200;SDS011;16244;51.956;12.980;2024-02-14T09:47:28;0.80;;;0.80;;
29200;SDS011;16244;51.956;12.980;2024-02-14T09:50:00;1.37;;;0.80;;
29200;SDS011;16244;51.956;12.980;2024-02-14T09:52:31;2.20;;;0.70;;
29200;SDS011;16244;51.956;12.980;2024-02-14T09:55:00;1.03;;;0.70;;
29200;SDS011;16244;51.956;12.980;2024-02-14T09:57:30;0.57;;;0.57;;
29200;SDS011;16244;51.956;12.980;2024-02-14T09:59:59;2.23;;;0.80;;
29200;SDS011;16244;51.956;12.980;2024-02-14T10:02:29;1.23;;;0.77;;
29200;SDS011;16244;51.956;12.980;2024-02-14T10:04:57;0.70;;;0.70;;
29200;SDS011;16244;51.956;12.980;2024-02-14T10:07:25;3.90;;;1.10;;
29200;SDS011;16244;51.956;12.980;2024-02-14T10:09:53;2.20;;;0.80;;
29200;SDS011;16244;51.956;12.980;2024-02-14T10:12:20;0.90;;;0.90;;
29200;SDS011;16244;51.956;12.980;2024-02-14T10:14:48;0.80;;;0.63;;
29200;SDS011;16244;51.956;12.980;2024-02-14T10:17:18;0.87;;;0.87;;
29200;SDS011;16244;51.956;12.980;2024-02-14T10:19:54;1.90;;;0.90;;
29200;SDS011;16244;51.956;12.980;2024-02-14T10:22:23;1.00;;;0.70;;
29200;SDS011;16244;51.956;12.980;2024-02-14T10:24:52;0.80;;;0.80;;
29200;SDS011;16244;51.956;12.980;2024-02-14T10:27:20;1.80;;;0.90;;
29200;SDS011;16244;51.956;12.980;2024-02-14T10:29:48;0.90;;;0.90;;
29200;SDS011;16244;51.956;12.980;2024-02-14T10:32:15;0.70;;;0.70;;
29200;SDS011;16244;51.956;12.980;2024-02-14T10:34:43;1.83;;;0.80;;
29200;SDS011;16244;51.956;12.980;2024-02-14T10:37:13;0.80;;;0.80;;
29200;SDS011;16244;51.956;12.980;2024-02-14T10:39:42;0.60;;;0.60;;
29200;SDS011;16244;51.956;12.980;2024-02-14T10:42:15;1.77;;;0.93;;
29200;SDS011;16244;51.956;12.980;2024-02-14T10:44:42;0.70;;;0.70;;
29200;SDS011;16244;51.956;12.980;2024-02-14T10:47:11;1.33;;;0.90;;
29200;SDS011;16244;51.956;12.980;2024-02-14T10:49:44;0.97;;;0.97;;
29200;SDS011;16244;51.956;12.980;2024-02-14T10:52:13;1.80;;;0.67;;
29200;SDS011;16244;51.956;12.980;2024-02-14T10:54:43;0.80;;;0.80;;
29200;SDS011;16244;51.956;12.980;2024-02-14T10:57:18;1.90;;;1.00;;
29200;SDS011;16244;51.956;12.980;2024-02-14T10:59:47;1.97;;;0.60;;
29200;SDS011;16244;51.956;12.980;2024-02-14T11:02:16;1.93;;;0.80;;
29200;SDS011;16244;51.956;12.980;2024-02-14T11:04:45;1.03;;;1.03;;
29200;SDS011;16244;51.956;12.980;2024-02-14T11:07:12;2.40;;;1.07;;
29200;SDS011;16244;51.956;12.980;2024-02-14T11:09:41;3.60;;;0.87;;
29200;SDS011;16244;51.956;12.980;2024-02-14T11:12:08;0.90;;;0.90;;
29200;SDS011;16244;51.956;12.980;2024-02-14T11:14:38;1.00;;;0.90;;
29200;SDS011;16244;51.956;12.980;2024-02-14T11:17:12;3.50;;;1.40;;
29200;SDS011;16244;51.956;12.980;2024-02-14T11:19:39;3.03;;;1.00;;
29200;SDS011;16244;51.956;12.980;2024-02-14T11:22:10;1.43;;;1.10;;
29200;SDS011;16244;51.956;12.980;2024-02-14T11:24:39;3.37;;;0.90;;
29200;SDS011;16244;51.956;12.980;2024-02-14T11:27:09;2.80;;;1.30;;
29200;SDS011;16244;51.956;12.980;2024-02-14T11:29:39;2.20;;;1.03;;
29200;SDS011;16244;51.956;12.980;2024-02-14T11:32:08;1.10;;;1.03;;
29200;SDS011;16244;51.956;12.980;2024-02-14T11:34:37;1.10;;;1.00;;
29200;SDS011;16244;51.956;12.980;2024-02-14T11:37:05;1.00;;;1.00;;
29200;SDS011;16244;51.956;12.980;2024-02-14T11:39:33;0.80;;;0.80;;
29200;SDS011;16244;51.956;12.980;2024-02-14T11:42:01;0.90;;;0.90;;
29200;SDS011;16244;51.956;12.980;2024-02-14T11:44:28;1.00;;;1.00;;
29200;SDS011;16244;51.956;12.980;2024-02-14T11:46:57;1.50;;;1.50;;
29200;SDS011;16244;51.956;12.980;2024-02-14T11:49:24;3.33;;;1.30;;
29200;SDS011;16244;51.956;12.980;2024-02-14T11:51:52;1.27;;;1.27;;
29200;SDS011;16244;51.956;12.980;2024-02-14T11:54:20;1.70;;;1.60;;
29200;SDS011;16244;51.956;12.980;2024-02-14T11:56:48;1.33;;;1.33;;
29200;SDS011;16244;51.956;12.980;2024-02-14T11:59:15;1.67;;;1.57;;
29200;SDS011;16244;51.956;12.980;2024-02-14T12:01:45;4.83;;;1.40;;
29200;SDS011;16244;51.956;12.980;2024-02-14T12:04:15;1.37;;;1.10;;
29200;SDS011;16244;51.956;12.980;2024-02-14T12:06:44;1.30;;;1.20;;
29200;SDS011;16244;51.956;12.980;2024-02-14T12:09:11;1.07;;;1.07;;
29200;SDS011;16244;51.956;12.980;2024-02-14T12:11:40;1.20;;;1.00;;
29200;SDS011;16244;51.956;12.980;2024-02-14T12:14:09;1.00;;;1.00;;
29200;SDS011;16244;51.956;12.980;2024-02-14T12:16:37;0.90;;;0.90;;
29200;SDS011;16244;51.956;12.980;2024-02-14T12:19:06;2.10;;;0.90;;
29200;SDS011;16244;51.956;12.980;2024-02-14T12:21:36;2.60;;;0.90;;
29200;SDS011;16244;51.956;12.980;2024-02-14T12:24:06;1.10;;;1.10;;
29200;SDS011;16244;51.956;12.980;2024-02-14T12:26:34;1.10;;;1.10;;
29200;SDS011;16244;51.956;12.980;2024-02-14T12:29:02;1.53;;;0.90;;
29200;SDS011;16244;51.956;12.980;2024-02-14T12:31:30;1.40;;;1.40;;
29200;SDS011;16244;51.956;12.980;2024-02-14T12:33:58;1.70;;;1.10;;
29200;SDS011;16244;51.956;12.980;2024-02-14T12:36:28;0.90;;;0.90;;
29200;SDS011;16244;51.956;12.980;2024-02-14T12:38:57;0.80;;;0.80;;
29200;SDS011;16244;51.956;12.980;2024-02-14T12:41:24;1.37;;;0.90;;
29200;SDS011;16244;51.956;12.980;2024-02-14T12:43:55;1.00;;;1.00;;
29200;SDS011;16244;51.956;12.980;2024-02-14T12:46:23;3.13;;;1.43;;
29200;SDS011;16244;51.956;12.980;2024-02-14T12:48:50;1.10;;;0.80;;
29200;SDS011;16244;51.956;12.980;2024-02-14T12:51:18;1.07;;;0.77;;
29200;SDS011;16244;51.956;12.980;2024-02-14T12:53:45;0.80;;;0.80;;
29200;SDS011;16244;51.956;12.980;2024-02-14T12:56:15;2.00;;;1.00;;
29200;SDS011;16244;51.956;12.980;2024-02-14T12:58:42;1.37;;;1.37;;
29200;SDS011;16244;51.956;12.980;2024-02-14T13:01:10;2.10;;;1.07;;
29200;SDS011;16244;51.956;12.980;2024-02-14T13:03:38;1.10;;;1.10;;
29200;SDS011;16244;51.956;12.980;2024-02-14T13:06:05;3.03;;;1.10;;
29200;SDS011;16244;51.956;12.980;2024-02-14T13:08:33;0.97;;;0.97;;
29200;SDS011;16244;51.956;12.980;2024-02-14T13:11:02;1.43;;;0.73;;
29200;SDS011;16244;51.956;12.980;2024-02-14T13:13:31;1.40;;;1.30;;
29200;SDS011;16244;51.956;12.980;2024-02-14T13:15:58;1.27;;;1.17;;
29200;SDS011;16244;51.956;12.980;2024-02-14T13:18:26;0.97;;;0.97;;
29200;SDS011;16244;51.956;12.980;2024-02-14T13:20:53;2.00;;;1.10;;
29200;SDS011;16244;51.956;12.980;2024-02-14T13:23:25;2.57;;;0.90;;
29200;SDS011;16244;51.956;12.980;2024-02-14T13:25:53;1.43;;;0.73;;
29200;SDS011;16244;51.956;12.980;2024-02-14T13:28:20;0.70;;;0.70;;
29200;SDS011;16244;51.956;12.980;2024-02-14T13:30:49;1.33;;;0.90;;
29200;SDS011;16244;51.956;12.980;2024-02-14T13:33:16;0.90;;;0.90;;
29200;SDS011;16244;51.956;12.980;2024-02-14T13:35:44;0.70;;;0.70;;
29200;SDS011;16244;51.956;12.980;2024-02-14T13:38:11;2.00;;;0.70;;
29200;SDS011;16244;51.956;12.980;2024-02-14T13:40:39;0.80;;;0.80;;
29200;SDS011;16244;51.956;12.980;2024-02-14T13:43:06;4.23;;;0.73;;
29200;SDS011;16244;51.956;12.980;2024-02-14T13:45:39;0.80;;;0.80;;
29200;SDS011;16244;51.956;12.980;2024-02-14T13:48:10;2.10;;;0.80;;
29200;SDS011;16244;51.956;12.980;2024-02-14T13:50:38;1.83;;;0.80;;
29200;SDS011;16244;51.956;12.980;2024-02-14T13:53:05;0.77;;;0.70;;
29200;SDS011;16244;51.956;12.980;2024-02-14T13:55:33;1.57;;;0.80;;
29200;SDS011;16244;51.956;12.980;2024-02-14T13:58:01;0.80;;;0.80;;
29200;SDS011;16244;51.956;12.980;2024-02-14T14:00:28;2.20;;;0.80;;
29200;SDS011;16244;51.956;12.980;2024-02-14T14:02:56;0.87;;;0.87;;
29200;SDS011;16244;51.956;12.980;2024-02-14T14:05:24;1.10;;;1.10;;
29200;SDS011;16244;51.956;12.980;2024-02-14T14:07:52;1.57;;;0.60;;
29200;SDS011;16244;51.956;12.980;2024-02-14T14:10:20;1.00;;;0.90;;
29200;SDS011;16244;51.956;12.980;2024-02-14T14:12:47;4.03;;;0.73;;
29200;SDS011;16244;51.956;12.980;2024-02-14T14:15:15;1.50;;;0.60;;
29200;SDS011;16244;51.956;12.980;2024-02-14T14:17:42;0.70;;;0.70;;
29200;SDS011;16244;51.956;12.980;2024-02-14T14:20:10;0.57;;;0.57;;
29200;SDS011;16244;51.956;12.980;2024-02-14T14:22:39;0.63;;;0.63;;
29200;SDS011;16244;51.956;12.980;2024-02-14T14:25:07;0.70;;;0.70;;
29200;SDS011;16244;51.956;12.980;2024-02-14T14:27:35;3.03;;;0.80;;
29200;SDS011;16244;51.956;12.980;2024-02-14T14:30:03;1.17;;;0.60;;
29200;SDS011;16244;51.956;12.980;2024-02-14T14:32:33;1.00;;;0.90;;
29200;SDS011;16244;51.956;12.980;2024-02-14T14:35:00;0.60;;;0.60;;
29200;SDS011;16244;51.956;12.980;2024-02-14T14:37:28;1.33;;;0.60;;
29200;SDS011;16244;51.956;12.980;2024-02-14T14:39:56;0.60;;;0.60;;